Renick, Missouri
Current Conditions -  °F | °C
As of 12:35 PM on Monday 20 Oct 2014 (Local Time) from KVER Reporting Station
Clear Clear  
Wind Chill: 69°   Ceiling: Unl
Heat Index: 69°   Visibility: 10mi
Dew Point: 47°   Wind: 0mph
Humidity: 46%   Direction: NA
Pressure: 30.03"   Gusts: NA
Location:  39.34°N, 92.41°W
Report Text: KVER 201735Z AUTO 00000KT 10SM CLR 21/09 A3003 RMK AO2 T02050086
Loading
Personal Weather Stations






























Interactive Weather Map
Tropical Storm Tracking
New forecast layout! Learn more

10-Day Weather Forecast

Advertisements
Track Severe Weather on mobile